Time;durP1;ratioP1;P1;durP2;ratioP2;P2;SDS_P1;SDS_P2;PMS_P1;PMS_P2;Temp;Humidity;BMP_temperature;BMP_pressure;BME280_temperature;BME280_humidity;BME280_pressure;Samples;Min_cycle;Max_cycle;Signal;HPM_P1;HPM_P2
2022/06/11 00:01:59;;;;;;;6.63;2.90;;;11.80;97.10;;;;;;5045243;28;20025;-69
2022/06/11 00:04:29;;;;;;;6.25;3.40;;;11.90;97.20;;;;;;5051035;28;20079;-69
2022/06/11 00:07:09;;;;;;;7.45;3.50;;;11.80;97.00;;;;;;5052528;28;20031;-69
2022/06/11 00:09:36;;;;;;;7.00;3.28;;;11.70;97.10;;;;;;5048319;28;20024;-69
2022/06/11 00:12:03;;;;;;;6.57;2.80;;;11.70;97.20;;;;;;5048485;28;20025;-69
2022/06/11 00:14:31;;;;;;;5.43;2.65;;;11.60;97.00;;;;;;5050917;28;20052;-69
2022/06/11 00:16:58;;;;;;;6.30;3.00;;;11.50;96.70;;;;;;5050309;28;20028;-69
2022/06/11 00:19:25;;;;;;;7.03;3.58;;;11.50;96.80;;;;;;5053462;28;20052;-69
2022/06/11 00:21:53;;;;;;;6.18;3.15;;;11.40;96.80;;;;;;5049776;28;20040;-69
2022/06/11 00:24:21;;;;;;;5.40;3.40;;;11.30;96.50;;;;;;5053737;28;20024;-69
2022/06/11 00:26:49;;;;;;;6.63;2.92;;;11.30;96.60;;;;;;5052447;28;20048;-69
2022/06/11 00:29:17;;;;;;;6.07;3.58;;;11.30;96.40;;;;;;5047458;28;20056;-69
2022/06/11 00:31:44;;;;;;;9.38;4.15;;;11.40;96.90;;;;;;5049104;28;20044;-69
2022/06/11 00:34:10;;;;;;;7.40;3.13;;;11.40;96.70;;;;;;5052912;28;20116;-69
2022/06/11 00:36:36;;;;;;;6.25;3.60;;;11.50;96.80;;;;;;5053728;28;20104;-69
2022/06/11 00:39:05;;;;;;;5.13;3.22;;;11.50;96.80;;;;;;5056159;28;20028;-69
2022/06/11 00:41:31;;;;;;;6.38;3.75;;;11.50;96.90;;;;;;5049020;28;20052;-69
2022/06/11 00:43:57;;;;;;;6.30;3.35;;;11.40;96.80;;;;;;5053270;28;20332;-69
2022/06/11 00:46:52;;;;;;;5.43;3.53;;;11.30;96.60;;;;;;5053194;28;20028;-69
2022/06/11 00:49:21;;;;;;;5.38;3.25;;;11.40;96.70;;;;;;5055355;28;20032;-69
2022/06/11 00:51:51;;;;;;;6.72;3.72;;;11.30;96.50;;;;;;5054410;28;20029;-69
2022/06/11 00:54:24;;;;;;;9.15;3.38;;;11.30;96.60;;;;;;5056347;28;20060;-68
2022/06/11 00:56:54;;;;;;;8.30;4.30;;;11.30;96.40;;;;;;5051360;28;20025;-70
2022/06/11 00:59:45;;;;;;;9.10;3.28;;;11.20;96.20;;;;;;5046094;28;20029;-69
2022/06/11 01:02:11;;;;;;;5.05;3.20;;;11.20;96.30;;;;;;5055831;28;20040;-69
2022/06/11 01:04:47;;;;;;;7.45;3.58;;;11.10;95.90;;;;;;5058518;28;20071;-70
2022/06/11 01:07:43;;;;;;;6.68;3.47;;;11.10;96.00;;;;;;5042673;28;20017;-69
2022/06/11 01:10:40;;;;;;;6.35;3.58;;;11.20;96.00;;;;;;5053483;28;20025;-69
2022/06/11 01:13:40;;;;;;;9.20;3.83;;;11.20;96.10;;;;;;5053962;28;20029;-69
2022/06/11 01:16:16;;;;;;;8.07;3.80;;;11.20;96.20;;;;;;5050728;28;20041;-69
2022/06/11 01:19:07;;;;;;;5.97;3.33;;;11.20;96.10;;;;;;5036312;28;20032;-69
2022/06/11 01:21:58;;;;;;;6.13;3.85;;;11.20;96.20;;;;;;5055255;28;20021;-70
2022/06/11 01:24:43;;;;;;;8.77;3.67;;;11.20;96.00;;;;;;5055427;28;20021;-69
2022/06/11 01:27:39;;;;;;;6.82;3.20;;;11.30;96.20;;;;;;5053124;28;20021;-70
2022/06/11 01:30:08;;;;;;;6.40;3.60;;;11.30;96.40;;;;;;5045723;28;20100;-70
2022/06/11 01:33:07;;;;;;;6.03;3.30;;;11.40;96.50;;;;;;5055719;28;20360;-70
2022/06/11 01:36:00;;;;;;;7.38;3.25;;;11.50;96.80;;;;;;5055484;28;20366;-70
2022/06/11 01:38:33;;;;;;;5.57;3.42;;;11.50;96.80;;;;;;5053957;28;20041;-69
2022/06/11 01:41:16;;;;;;;6.10;3.70;;;11.40;96.70;;;;;;5055109;28;20029;-69
2022/06/11 01:43:45;;;;;;;5.97;3.40;;;11.50;96.90;;;;;;5049335;28;20361;-69
2022/06/11 01:46:43;;;;;;;7.78;3.40;;;11.60;97.20;;;;;;5052879;28;20020;-69
2022/06/11 01:49:28;;;;;;;6.57;3.40;;;11.70;97.30;;;;;;5050376;28;20041;-69
2022/06/11 01:52:02;;;;;;;6.93;3.60;;;11.70;97.40;;;;;;5047268;28;20029;-69
2022/06/11 01:54:52;;;;;;;5.35;3.30;;;11.80;97.30;;;;;;5053728;28;20183;-70
2022/06/11 01:57:38;;;;;;;5.70;3.42;;;11.80;97.40;;;;;;5052541;28;20021;-69
2022/06/11 02:00:08;;;;;;;7.28;3.42;;;11.80;97.60;;;;;;5053903;28;20307;-70
2022/06/11 02:03:18;;;;;;;9.75;3.78;;;11.80;97.70;;;;;;5051967;28;20024;-70
2022/06/11 02:06:13;;;;;;;6.00;3.55;;;11.90;97.80;;;;;;5053279;28;20033;-70
2022/06/11 02:09:04;;;;;;;6.82;3.40;;;12.00;97.60;;;;;;5050548;28;20032;-69
2022/06/11 02:11:32;;;;;;;7.35;3.70;;;12.00;97.60;;;;;;5044600;28;20090;-69
2022/06/11 02:14:12;;;;;;;5.50;3.30;;;12.00;97.80;;;;;;5054579;28;20025;-69
2022/06/11 02:16:49;;;;;;;6.38;3.60;;;11.90;97.60;;;;;;5051675;28;20086;-69
2022/06/11 02:19:20;;;;;;;6.13;3.30;;;11.80;97.40;;;;;;5048975;28;20029;-69
2022/06/11 02:22:01;;;;;;;8.95;3.40;;;11.70;97.50;;;;;;5055956;28;20029;-69
2022/06/11 02:24:35;;;;;;;5.60;3.45;;;11.80;97.60;;;;;;5048493;28;20299;-69
2022/06/11 02:27:09;;;;;;;5.38;3.13;;;11.80;97.80;;;;;;5053879;28;20490;-69
2022/06/11 02:29:35;;;;;;;5.40;3.28;;;11.90;98.00;;;;;;5041169;28;21310;-69
2022/06/11 02:32:13;;;;;;;8.88;3.45;;;11.90;97.90;;;;;;5053764;28;20029;-70
2022/06/11 02:34:45;;;;;;;6.03;3.47;;;11.90;97.80;;;;;;5053547;28;20028;-69
2022/06/11 02:37:21;;;;;;;5.60;3.45;;;11.90;97.80;;;;;;5055370;28;20107;-70
2022/06/11 02:39:46;;;;;;;7.75;3.53;;;11.90;97.90;;;;;;5052436;28;20025;-70
2022/06/11 02:42:16;;;;;;;6.82;3.13;;;12.00;97.90;;;;;;5054796;28;20318;-69
2022/06/11 02:44:41;;;;;;;6.90;3.25;;;12.00;97.90;;;;;;5051086;28;20140;-69
2022/06/11 02:47:08;;;;;;;7.88;3.30;;;12.00;98.00;;;;;;5052563;28;20104;-69
2022/06/11 02:49:36;;;;;;;7.30;3.35;;;12.00;98.00;;;;;;5053124;28;20043;-69
2022/06/11 02:52:07;;;;;;;7.28;3.50;;;12.10;98.00;;;;;;5054956;28;20107;-70
2022/06/11 02:54:37;;;;;;;17.30;3.80;;;12.10;98.00;;;;;;5051005;28;20111;-70
2022/06/11 02:57:04;;;;;;;5.95;3.20;;;11.90;97.80;;;;;;5053899;28;20104;-69
2022/06/11 02:59:31;;;;;;;6.70;2.92;;;11.80;97.70;;;;;;5051224;28;20024;-69
2022/06/11 03:01:57;;;;;;;6.18;3.10;;;11.70;97.80;;;;;;5052261;28;20430;-69
2022/06/11 03:04:25;;;;;;;4.70;2.88;;;11.80;97.80;;;;;;5047940;28;20037;-70
2022/06/11 03:06:51;;;;;;;6.35;3.25;;;11.80;97.80;;;;;;5041894;28;20048;-69
2022/06/11 03:09:21;;;;;;;5.15;3.00;;;11.90;97.90;;;;;;5050861;28;20067;-69
2022/06/11 03:11:47;;;;;;;6.68;3.45;;;11.90;98.00;;;;;;5052829;28;20486;-69
2022/06/11 03:14:14;;;;;;;6.57;3.40;;;11.90;97.90;;;;;;5054098;28;20032;-69
2022/06/11 03:16:40;;;;;;;6.47;3.03;;;11.90;97.80;;;;;;5048974;28;20368;-70
2022/06/11 03:19:08;;;;;;;8.13;3.20;;;11.80;97.80;;;;;;5047114;28;20033;-69
2022/06/11 03:21:35;;;;;;;7.45;3.58;;;11.80;97.80;;;;;;5051533;28;20849;-70
2022/06/11 03:24:01;;;;;;;7.15;3.30;;;11.80;97.80;;;;;;5052838;28;21116;-69
2022/06/11 03:26:27;;;;;;;7.60;3.60;;;11.80;97.80;;;;;;5054631;28;20078;-69
2022/06/11 03:28:53;;;;;;;5.97;3.47;;;11.80;97.80;;;;;;5049806;28;20022;-70
2022/06/11 03:31:19;;;;;;;8.73;3.10;;;11.70;97.70;;;;;;5048392;28;20128;-70
2022/06/11 03:33:45;;;;;;;5.13;3.33;;;11.70;97.80;;;;;;5052104;28;20123;-70
2022/06/11 03:36:14;;;;;;;6.82;3.15;;;11.70;97.70;;;;;;5052876;28;20371;-70
2022/06/11 03:38:42;;;;;;;8.63;3.17;;;11.70;97.70;;;;;;5053630;28;20025;-70
2022/06/11 03:41:08;;;;;;;7.18;3.20;;;11.60;97.60;;;;;;5052023;28;20489;-70
2022/06/11 03:43:35;;;;;;;6.57;3.08;;;11.60;97.70;;;;;;5051479;28;20029;-70
2022/06/11 03:46:01;;;;;;;6.60;2.95;;;11.70;97.90;;;;;;5040823;28;20025;-70
2022/06/11 03:48:28;;;;;;;5.32;3.40;;;11.70;97.80;;;;;;5048410;28;21687;-70
2022/06/11 03:50:57;;;;;;;6.30;3.10;;;11.80;97.90;;;;;;5046609;28;20029;-70
2022/06/11 03:53:23;;;;;;;6.20;2.67;;;11.90;98.00;;;;;;5053694;28;20123;-70
2022/06/11 03:55:49;;;;;;;8.00;3.30;;;12.00;98.00;;;;;;5052128;28;20024;-70
2022/06/11 03:58:18;;;;;;;6.68;2.88;;;12.20;98.00;;;;;;5047187;28;20029;-70
2022/06/11 04:03:31;;;;;;;7.88;3.13;;;12.40;98.00;;;;;;5052205;28;20048;-69
2022/06/11 04:05:57;;;;;;;5.78;2.80;;;12.50;98.00;;;;;;5054374;28;20303;-70
2022/06/11 04:08:25;;;;;;;6.05;2.90;;;12.50;97.90;;;;;;5049635;28;20026;-70
2022/06/11 04:10:54;;;;;;;7.57;2.92;;;12.50;97.90;;;;;;5053019;28;20036;-69
2022/06/11 04:13:21;;;;;;;7.97;3.33;;;12.50;98.00;;;;;;5052225;28;20574;-69
2022/06/11 04:15:48;;;;;;;6.18;3.20;;;12.40;97.90;;;;;;5040875;28;20037;-69
2022/06/11 04:18:36;;;;;;;6.88;2.88;;;12.30;97.90;;;;;;5047774;28;20044;-69
2022/06/11 04:21:05;;;;;;;5.07;2.88;;;12.40;97.90;;;;;;5038550;28;20445;-69
2022/06/11 04:23:31;;;;;;;5.35;2.92;;;12.40;97.90;;;;;;5037938;28;20021;-71
2022/06/11 04:26:00;;;;;;;4.82;2.78;;;12.50;98.00;;;;;;5053093;28;20092;-71
2022/06/11 04:28:28;;;;;;;5.82;2.80;;;12.50;98.00;;;;;;5049657;28;20104;-71
2022/06/11 04:30:58;;;;;;;6.03;2.70;;;12.60;98.00;;;;;;5052572;28;20025;-70
2022/06/11 04:33:24;;;;;;;5.68;2.90;;;12.50;97.80;;;;;;5051532;28;20032;-70
2022/06/11 04:35:50;;;;;;;5.95;3.05;;;12.50;97.90;;;;;;5045974;28;20326;-70
2022/06/11 04:38:16;;;;;;;5.85;2.80;;;12.50;97.80;;;;;;5051132;28;20175;-70
2022/06/11 04:40:43;;;;;;;6.65;3.22;;;12.40;97.90;;;;;;5052090;28;20112;-70
2022/06/11 04:43:09;;;;;;;5.68;3.05;;;12.40;97.80;;;;;;5052907;28;20045;-70
2022/06/11 04:45:35;;;;;;;6.38;2.90;;;12.40;97.80;;;;;;5050812;28;20435;-71
2022/06/11 04:48:01;;;;;;;5.43;3.00;;;12.50;97.90;;;;;;5050140;28;20021;-70
2022/06/11 04:50:27;;;;;;;7.18;2.90;;;12.60;97.90;;;;;;5049465;28;20104;-70
2022/06/11 04:52:53;;;;;;;4.80;2.75;;;12.70;98.00;;;;;;5051924;28;20023;-69
2022/06/11 04:55:19;;;;;;;6.65;2.88;;;12.80;97.90;;;;;;5054180;28;20031;-70
2022/06/11 04:57:45;;;;;;;6.47;2.88;;;12.90;97.80;;;;;;5050003;28;20033;-70
2022/06/11 05:00:19;;;;;;;6.35;3.10;;;12.90;98.00;;;;;;5050627;28;20037;-70
2022/06/11 05:02:45;;;;;;;6.47;3.20;;;13.00;97.90;;;;;;5051448;28;20025;-70
2022/06/11 05:05:11;;;;;;;5.35;2.50;;;13.10;97.80;;;;;;5052619;28;20397;-70
2022/06/11 05:07:37;;;;;;;7.47;2.85;;;13.20;97.80;;;;;;5049650;28;20018;-70
2022/06/11 05:10:04;;;;;;;7.57;2.90;;;13.20;97.90;;;;;;5048734;28;20036;-70
2022/06/11 05:12:30;;;;;;;7.13;2.75;;;13.30;97.80;;;;;;5051436;28;20051;-70
2022/06/11 05:14:56;;;;;;;6.35;2.97;;;13.40;98.00;;;;;;5053763;28;20052;-70
2022/06/11 05:17:21;;;;;;;6.75;2.72;;;13.60;97.90;;;;;;5052326;28;20032;-70
2022/06/11 05:19:47;;;;;;;8.23;2.70;;;13.70;97.90;;;;;;5050791;28;20052;-70
2022/06/11 05:22:13;;;;;;;5.32;2.97;;;13.80;97.90;;;;;;5056742;28;20028;-70
2022/06/11 05:24:38;;;;;;;4.85;2.78;;;14.00;97.50;;;;;;5055934;28;20082;-70
2022/06/11 05:27:12;;;;;;;5.35;2.42;;;14.10;97.40;;;;;;5053634;28;20421;-70
2022/06/11 05:29:44;;;;;;;4.88;2.58;;;14.30;97.40;;;;;;5053964;28;20067;-69
2022/06/11 05:32:10;;;;;;;4.00;2.20;;;14.50;97.20;;;;;;5054810;28;20098;-70
2022/06/11 05:34:36;;;;;;;6.85;2.72;;;14.60;97.00;;;;;;5053876;28;20373;-70
2022/06/11 05:37:03;;;;;;;5.03;2.15;;;14.80;96.80;;;;;;5056283;28;20653;-70
2022/06/11 05:39:29;;;;;;;4.43;2.03;;;15.00;96.50;;;;;;5054849;28;20479;-70
2022/06/11 05:41:55;;;;;;;7.55;2.53;;;15.10;96.30;;;;;;5056137;28;21730;-70
2022/06/11 05:44:22;;;;;;;4.18;2.05;;;15.30;96.00;;;;;;5057180;28;20028;-70
2022/06/11 05:46:48;;;;;;;4.82;2.25;;;15.50;95.80;;;;;;5056148;28;20043;-70
2022/06/11 05:49:19;;;;;;;4.57;1.90;;;15.70;95.30;;;;;;5055697;28;20024;-70
2022/06/11 05:51:56;;;;;;;4.57;2.40;;;15.80;94.90;;;;;;5055238;28;20040;-69
2022/06/11 05:54:25;;;;;;;3.80;1.90;;;16.00;94.10;;;;;;5051750;28;20164;-70
2022/06/11 05:56:51;;;;;;;4.72;1.95;;;16.20;93.90;;;;;;5046499;28;20090;-70
2022/06/11 05:59:23;;;;;;;7.13;2.30;;;16.30;93.30;;;;;;5044089;28;20415;-70
2022/06/11 06:01:51;;;;;;;5.40;2.10;;;16.50;92.20;;;;;;5044665;28;20450;-70
2022/06/11 06:04:17;;;;;;;5.22;1.98;;;16.60;92.10;;;;;;5050836;28;20029;-70
2022/06/11 06:06:42;;;;;;;5.25;2.05;;;16.80;92.00;;;;;;5056111;28;20025;-70
2022/06/11 06:09:08;;;;;;;3.80;1.85;;;17.00;91.90;;;;;;5056969;28;20174;-70
2022/06/11 06:11:34;;;;;;;4.63;1.90;;;17.10;91.40;;;;;;5056079;28;20029;-70
2022/06/11 06:14:00;;;;;;;4.20;2.05;;;17.30;90.70;;;;;;5056893;28;20037;-70
2022/06/11 06:16:32;;;;;;;4.20;1.90;;;17.50;91.10;;;;;;5055503;28;20045;-70
2022/06/11 06:19:02;;;;;;;4.30;1.77;;;17.70;90.20;;;;;;5056746;28;20033;-70
2022/06/11 06:21:31;;;;;;;4.72;1.95;;;17.90;89.90;;;;;;5056174;28;20342;-70
2022/06/11 06:23:57;;;;;;;4.30;2.20;;;18.00;88.70;;;;;;5055737;28;20035;-70
2022/06/11 06:26:23;;;;;;;6.45;2.45;;;18.20;88.40;;;;;;5056616;28;20319;-70
2022/06/11 06:28:50;;;;;;;5.38;2.28;;;18.30;89.20;;;;;;5057365;28;20035;-70
2022/06/11 06:31:16;;;;;;;9.25;3.10;;;18.50;89.20;;;;;;5055935;28;20108;-69
2022/06/11 06:33:43;;;;;;;8.25;2.72;;;18.50;88.90;;;;;;5054666;28;20031;-70
2022/06/11 06:36:10;;;;;;;6.35;2.90;;;18.70;89.30;;;;;;5054472;28;20055;-70
2022/06/11 06:38:37;;;;;;;6.25;3.15;;;18.70;89.30;;;;;;5051804;28;20052;-70
2022/06/11 06:41:03;;;;;;;5.13;2.25;;;18.80;88.60;;;;;;5055072;28;21602;-70
2022/06/11 06:43:29;;;;;;;4.25;2.35;;;18.80;87.30;;;;;;5055864;28;20065;-70
2022/06/11 06:45:54;;;;;;;5.60;2.13;;;18.90;87.20;;;;;;5053357;28;20052;-70
2022/06/11 06:48:20;;;;;;;4.90;2.42;;;19.00;86.90;;;;;;5055650;28;20021;-70
2022/06/11 06:50:46;;;;;;;5.75;2.40;;;19.10;86.00;;;;;;5056915;28;20029;-70
2022/06/11 06:53:15;;;;;;;4.63;2.30;;;19.30;85.60;;;;;;5056807;28;20104;-70
2022/06/11 06:55:41;;;;;;;4.45;2.10;;;19.50;84.10;;;;;;5056022;28;20032;-70
2022/06/11 06:58:08;;;;;;;4.00;1.90;;;19.70;81.70;;;;;;5056896;28;20017;-69
2022/06/11 07:00:33;;;;;;;3.90;1.70;;;19.80;81.50;;;;;;5054630;28;20029;-70
2022/06/11 07:02:59;;;;;;;4.97;1.80;;;19.90;80.50;;;;;;5056728;28;20040;-70
2022/06/11 07:05:26;;;;;;;4.88;1.90;;;20.10;77.70;;;;;;5054880;28;20017;-70
2022/06/11 07:07:52;;;;;;;4.38;1.63;;;20.20;76.90;;;;;;5056221;28;20024;-69
2022/06/11 07:10:21;;;;;;;4.95;1.98;;;20.20;77.60;;;;;;5055454;28;20037;-69
2022/06/11 07:12:46;;;;;;;4.00;2.35;;;20.40;76.70;;;;;;5056260;28;20039;-70
2022/06/11 07:15:13;;;;;;;4.75;2.13;;;20.60;75.20;;;;;;5053501;28;20021;-70
2022/06/11 07:17:55;;;;;;;4.88;1.80;;;20.60;77.50;;;;;;5055448;28;20029;-71
2022/06/11 07:20:24;;;;;;;5.22;1.92;;;20.70;76.90;;;;;;5055069;28;20029;-72
2022/06/11 07:22:54;;;;;;;6.15;1.98;;;20.90;74.60;;;;;;5047930;28;20025;-71
2022/06/11 07:25:20;;;;;;;5.20;1.58;;;21.60;71.30;;;;;;5056322;28;20378;-71
2022/06/11 07:27:54;;;;;;;4.40;1.60;;;22.40;69.80;;;;;;5054269;28;20078;-70
2022/06/11 07:30:25;;;;;;;4.25;1.35;;;23.40;66.70;;;;;;5047791;28;20331;-71
2022/06/11 07:32:56;;;;;;;6.28;1.58;;;24.10;65.30;;;;;;5055246;28;20461;-71
2022/06/11 07:35:22;;;;;;;7.15;1.75;;;24.60;64.20;;;;;;5055445;28;20037;-70
2022/06/11 07:37:49;;;;;;;4.28;1.15;;;24.90;63.40;;;;;;5053881;28;20295;-70
2022/06/11 07:40:18;;;;;;;3.78;1.40;;;25.10;63.10;;;;;;5056038;28;20494;-70
2022/06/11 07:42:43;;;;;;;4.28;1.45;;;25.00;62.30;;;;;;5055752;28;20033;-70
2022/06/11 07:45:09;;;;;;;3.13;1.42;;;24.90;62.50;;;;;;5050384;28;20025;-70
2022/06/11 07:47:54;;;;;;;3.35;1.27;;;25.30;60.80;;;;;;5054771;28;20060;-70
2022/06/11 07:50:21;;;;;;;;;;;25.50;60.80;;;;;;5056550;28;20036;-71
2022/06/11 07:52:46;;;;;;;7.55;1.63;;;25.70;60.70;;;;;;5055139;28;19963;-71
2022/06/11 07:55:12;;;;;;;3.88;1.60;;;26.00;60.80;;;;;;5055952;28;20025;-70
2022/06/11 07:57:39;;;;;;;5.57;1.80;;;26.40;66.30;;;;;;5054018;28;20033;-70
2022/06/11 08:00:08;;;;;;;4.82;1.55;;;26.20;68.00;;;;;;5051460;28;20148;-71
2022/06/11 08:02:33;;;;;;;3.05;1.40;;;26.30;66.80;;;;;;5055558;28;20068;-70
2022/06/11 08:04:59;;;;;;;3.22;1.50;;;26.40;67.00;;;;;;5054868;28;20049;-71
2022/06/11 08:07:27;;;;;;;5.60;1.60;;;26.90;64.50;;;;;;5054903;28;20369;-71
2022/06/11 08:09:53;;;;;;;5.45;1.50;;;27.30;62.40;;;;;;5054486;28;20044;-70
2022/06/11 08:12:19;;;;;;;3.25;1.52;;;27.80;61.90;;;;;;5055298;28;20017;-70
2022/06/11 08:14:45;;;;;;;4.78;1.40;;;27.80;60.90;;;;;;5052649;28;20028;-71
2022/06/11 08:17:11;;;;;;;4.93;1.25;;;28.10;60.70;;;;;;5054746;28;20040;-70
2022/06/11 08:19:36;;;;;;;3.03;1.30;;;28.10;58.60;;;;;;5055058;28;20025;-71
2022/06/11 08:22:02;;;;;;;4.53;1.40;;;27.70;59.90;;;;;;5054717;28;20485;-71
2022/06/11 08:24:28;;;;;;;3.75;1.38;;;27.60;60.20;;;;;;5055593;28;20317;-71
2022/06/11 08:26:53;;;;;;;5.70;1.45;;;28.00;59.60;;;;;;5053416;28;20429;-70
2022/06/11 08:29:19;;;;;;;2.17;1.15;;;28.10;59.20;;;;;;5054847;28;20025;-70
2022/06/11 08:31:44;;;;;;;3.47;1.25;;;28.30;58.90;;;;;;5053310;28;20025;-70
2022/06/11 08:34:10;;;;;;;4.82;1.27;;;28.10;59.10;;;;;;5055491;28;20037;-70
2022/06/11 08:36:36;;;;;;;4.55;1.40;;;28.70;59.50;;;;;;5053440;28;20068;-70
2022/06/11 08:39:02;;;;;;;3.92;1.40;;;28.80;58.10;;;;;;5055288;28;20040;-70
2022/06/11 08:41:35;;;;;;;4.10;1.20;;;28.40;58.40;;;;;;5053916;28;20037;-70
2022/06/11 08:44:13;;;;;;;3.28;1.10;;;29.00;57.80;;;;;;5054354;28;20031;-69
2022/06/11 08:46:42;;;;;;;2.97;1.00;;;29.10;53.30;;;;;;5051059;28;20344;-70
2022/06/11 08:49:11;;;;;;;4.03;1.10;;;28.70;55.30;;;;;;5059169;28;20029;-70
2022/06/11 08:51:50;;;;;;;3.72;1.23;;;29.00;55.60;;;;;;5058279;28;20044;-70
2022/06/11 08:54:25;;;;;;;6.18;1.15;;;29.10;54.10;;;;;;5059376;28;20025;-70
2022/06/11 08:57:13;;;;;;;2.97;1.00;;;29.00;53.10;;;;;;5050679;28;20033;-70
2022/06/11 09:00:11;;;;;;;3.63;0.90;;;29.50;53.50;;;;;;5057164;28;20132;-70
2022/06/11 09:03:04;;;;;;;4.75;1.20;;;30.50;52.20;;;;;;5057901;28;20037;-69
2022/06/11 09:05:48;;;;;;;4.75;1.10;;;30.50;52.80;;;;;;5057185;28;20414;-70
2022/06/11 09:08:34;;;;;;;3.08;1.13;;;30.30;52.40;;;;;;5058744;28;20418;-70
2022/06/11 09:11:12;;;;;;;3.20;1.20;;;29.30;54.00;;;;;;5057585;28;20035;-70
2022/06/11 09:14:11;;;;;;;4.80;1.20;;;29.00;54.60;;;;;;5056015;28;20613;-70
2022/06/11 09:16:55;;;;;;;4.35;1.05;;;29.00;54.10;;;;;;5056830;28;20112;-70
2022/06/11 09:20:06;;;;;;;4.97;1.17;;;28.70;55.10;;;;;;5058802;28;20056;-70
2022/06/11 09:23:06;;;;;;;4.35;1.00;;;29.10;54.40;;;;;;5057917;28;20025;-70
2022/06/11 09:25:47;;;;;;;4.22;1.20;;;29.70;52.60;;;;;;5055389;28;20037;-70
2022/06/11 09:28:15;;;;;;;5.72;1.10;;;30.50;52.70;;;;;;5060705;28;20056;-70
2022/06/11 09:30:46;;;;;;;5.07;1.10;;;29.70;52.70;;;;;;5056770;28;20111;-70
2022/06/11 09:33:12;;;;;;;3.58;1.10;;;30.00;51.40;;;;;;5053702;28;20094;-69
2022/06/11 09:35:50;;;;;;;4.30;1.25;;;30.50;51.00;;;;;;5056272;28;20111;-70
2022/06/11 09:38:34;;;;;;;4.35;1.10;;;30.70;51.30;;;;;;5057124;28;20045;-70
2022/06/11 09:41:37;;;;;;;3.47;1.00;;;31.30;50.00;;;;;;5055667;28;20040;-70
2022/06/11 09:44:53;;;;;;;3.58;1.08;;;30.60;50.60;;;;;;5052653;28;20088;-70
2022/06/11 09:47:47;;;;;;;5.75;1.38;;;28.00;54.90;;;;;;5053033;28;20036;-69
2022/06/11 09:50:31;;;;;;;3.45;1.35;;;26.60;58.50;;;;;;5052160;28;20048;-69
2022/06/11 09:52:57;;;;;;;;;;;27.10;57.60;;;;;;5053171;28;20041;-69
2022/06/11 09:55:41;;;;;;;4.28;1.10;;;27.90;55.50;;;;;;5054072;28;19920;-68
2022/06/11 09:58:39;;;;;;;4.22;1.35;;;28.60;54.70;;;;;;5048747;28;20032;-70
2022/06/11 10:01:13;;;;;;;7.82;1.60;;;29.90;54.60;;;;;;5054143;28;20055;-68
2022/06/11 10:03:46;;;;;;;5.93;1.50;;;31.30;52.70;;;;;;5044957;28;20025;-69
2022/06/11 10:06:26;;;;;;;5.05;1.60;;;31.60;50.30;;;;;;5055852;28;20033;-69
2022/06/11 10:09:09;;;;;;;5.45;1.20;;;30.60;53.30;;;;;;5054978;28;20036;-69
2022/06/11 10:11:44;;;;;;;4.63;1.23;;;30.30;52.10;;;;;;5046712;28;20067;-71
2022/06/11 10:14:29;;;;;;;3.50;1.30;;;30.00;52.80;;;;;;5056689;28;20025;-71
2022/06/11 10:17:03;;;;;;;4.22;1.10;;;30.10;52.70;;;;;;5056808;28;20109;-71
2022/06/11 10:20:08;;;;;;;4.68;1.45;;;29.40;53.40;;;;;;5055294;28;20135;-70
2022/06/11 10:22:44;;;;;;;5.40;1.10;;;30.30;53.90;;;;;;5055228;28;20049;-69
2022/06/11 10:25:31;;;;;;;2.58;1.10;;;30.80;53.20;;;;;;5050067;28;20063;-70
2022/06/11 10:28:12;;;;;;;4.72;1.33;;;31.50;52.40;;;;;;5051480;28;20318;-70
2022/06/11 10:30:45;;;;;;;3.15;1.17;;;31.10;51.40;;;;;;5050318;28;20419;-69
2022/06/11 10:33:28;;;;;;;4.80;1.17;;;30.20;52.60;;;;;;5054982;28;20036;-70
2022/06/11 10:36:02;;;;;;;3.58;1.17;;;30.40;53.10;;;;;;5051492;28;20028;-70
2022/06/11 10:38:48;;;;;;;4.97;1.40;;;30.40;51.60;;;;;;5053759;28;20078;-68
2022/06/11 10:41:25;;;;;;;4.13;1.63;;;30.40;52.00;;;;;;5054461;28;20079;-70
2022/06/11 10:44:11;;;;;;;3.50;1.20;;;29.70;53.40;;;;;;5043627;28;20021;-71
2022/06/11 10:46:37;;;;;;;3.72;1.40;;;30.00;53.90;;;;;;5054003;28;20411;-69
2022/06/11 10:49:14;;;;;;;4.82;1.20;;;30.00;52.80;;;;;;5054484;28;20021;-70
2022/06/11 10:51:44;;;;;;;3.60;1.10;;;30.40;53.60;;;;;;5051416;28;20032;-70
2022/06/11 10:54:14;;;;;;;3.15;1.30;;;30.40;52.40;;;;;;5054215;28;20087;-70
2022/06/11 10:56:48;;;;;;;4.00;1.27;;;30.10;55.20;;;;;;5055780;28;20047;-69
2022/06/11 10:59:30;;;;;;;4.93;1.40;;;29.60;54.40;;;;;;5053946;28;20352;-69
2022/06/11 11:02:13;;;;;;;4.20;1.42;;;29.30;53.80;;;;;;5052748;28;20449;-69
2022/06/11 11:04:53;;;;;;;5.50;1.70;;;29.00;55.70;;;;;;5055259;28;20021;-70
2022/06/11 11:07:20;;;;;;;6.97;1.52;;;28.20;55.60;;;;;;5055445;28;20032;-70
2022/06/11 11:09:47;;;;;;;4.57;1.33;;;28.10;56.40;;;;;;5054074;28;20017;-70
2022/06/11 11:12:32;;;;;;;4.75;1.42;;;28.50;56.40;;;;;;5054870;28;20040;-70
2022/06/11 11:15:10;;;;;;;6.45;1.30;;;29.00;57.40;;;;;;5044744;28;20025;-69
2022/06/11 11:17:43;;;;;;;4.70;1.50;;;29.50;58.00;;;;;;5054523;28;20048;-70
2022/06/11 11:20:34;;;;;;;6.93;1.50;;;29.20;54.60;;;;;;5054262;28;20036;-70
2022/06/11 11:23:05;;;;;;;5.63;2.28;;;29.20;55.10;;;;;;5043372;28;20044;-69
2022/06/11 11:25:38;;;;;;;5.35;2.55;;;29.10;53.90;;;;;;5051915;28;20013;-70
2022/06/11 11:28:06;;;;;;;6.38;2.00;;;28.80;56.20;;;;;;5053348;28;20071;-70
2022/06/11 11:30:37;;;;;;;5.80;1.60;;;28.90;57.20;;;;;;5053785;28;20029;-70
2022/06/11 11:33:23;;;;;;;2.83;1.20;;;29.00;55.20;;;;;;5053698;28;20040;-70
2022/06/11 11:36:20;;;;;;;6.15;1.88;;;28.80;54.60;;;;;;5054084;28;20070;-70
2022/06/11 11:39:15;;;;;;;10.65;1.60;;;28.40;55.30;;;;;;5054872;28;20048;-71
2022/06/11 11:42:07;;;;;;;4.85;1.38;;;28.40;56.90;;;;;;5054951;28;20041;-70
2022/06/11 11:44:49;;;;;;;4.22;1.40;;;28.50;56.00;;;;;;5054421;28;20091;-70
2022/06/11 11:47:31;;;;;;;6.22;1.73;;;28.20;56.20;;;;;;5052925;28;20029;-70
2022/06/11 11:50:24;;;;;;;3.60;1.27;;;27.70;56.60;;;;;;5054522;28;20416;-70
2022/06/11 11:53:01;;;;;;;3.88;1.45;;;27.30;58.00;;;;;;5054923;28;20035;-70
2022/06/11 11:55:30;;;;;;;5.30;1.30;;;27.20;57.70;;;;;;5054968;28;20096;-69
2022/06/11 11:58:03;;;;;;;3.85;1.55;;;27.30;56.50;;;;;;5054453;28;20107;-69
2022/06/11 12:00:51;;;;;;;5.07;1.52;;;27.10;57.60;;;;;;5052180;28;20036;-69
2022/06/11 12:03:37;;;;;;;3.38;1.30;;;27.10;57.30;;;;;;5045403;28;20033;-69
2022/06/11 12:06:04;;;;;;;5.20;1.50;;;27.10;57.20;;;;;;5054842;28;20053;-69
2022/06/11 12:08:52;;;;;;;3.22;1.42;;;27.30;56.20;;;;;;5055157;28;20029;-70
2022/06/11 12:11:23;;;;;;;5.43;1.65;;;27.00;57.40;;;;;;5055531;28;20021;-69
2022/06/11 12:13:58;;;;;;;4.22;1.30;;;27.50;58.20;;;;;;5054714;28;20036;-69
2022/06/11 12:16:50;;;;;;;4.45;1.10;;;27.60;56.40;;;;;;5053619;28;20107;-69
2022/06/11 12:19:21;;;;;;;3.13;1.17;;;27.80;56.20;;;;;;5038860;28;20053;-69
2022/06/11 12:22:10;;;;;;;2.85;1.10;;;28.10;55.90;;;;;;5054376;28;20358;-70
2022/06/11 12:24:45;;;;;;;4.55;1.77;;;28.80;55.20;;;;;;5057673;28;20330;-69
2022/06/11 12:27:24;;;;;;;3.92;1.20;;;28.70;54.40;;;;;;5056503;28;20417;-69
2022/06/11 12:29:54;;;;;;;8.20;1.70;;;28.60;56.80;;;;;;5053038;28;20028;-70
2022/06/11 12:32:23;;;;;;;5.63;1.30;;;29.00;55.40;;;;;;5056608;28;20104;-70
2022/06/11 12:34:51;;;;;;;3.95;1.20;;;29.00;55.10;;;;;;5057080;28;20127;-69
2022/06/11 12:37:54;;;;;;;3.25;1.15;;;29.10;55.30;;;;;;5058023;28;20028;-70
2022/06/11 12:40:42;;;;;;;4.32;1.10;;;29.70;53.50;;;;;;5047511;28;20478;-69
2022/06/11 12:43:37;;;;;;;4.32;1.20;;;29.70;53.50;;;;;;5054913;28;20045;-69
2022/06/11 12:46:19;;;;;;;4.03;1.52;;;29.30;53.40;;;;;;5056058;28;20032;-70
2022/06/11 12:48:52;;;;;;;4.18;1.10;;;29.30;53.70;;;;;;5055478;28;20029;-70
2022/06/11 12:51:35;;;;;;;3.95;1.20;;;29.80;54.60;;;;;;5056483;28;20033;-70
2022/06/11 12:54:10;;;;;;;4.78;1.60;;;29.50;53.40;;;;;;5055329;28;20025;-69
2022/06/11 12:56:44;;;;;;;5.30;1.35;;;28.80;54.60;;;;;;5056056;28;20036;-68
2022/06/11 12:59:30;;;;;;;5.60;1.35;;;28.80;55.10;;;;;;5057118;28;20083;-69
2022/06/11 13:02:19;;;;;;;2.63;0.93;;;29.40;55.30;;;;;;5049191;28;20041;-69
2022/06/11 13:05:09;;;;;;;4.28;1.35;;;30.20;53.90;;;;;;5052496;28;20021;-69
2022/06/11 13:07:55;;;;;;;3.58;1.00;;;30.80;51.50;;;;;;5057884;28;20025;-71
2022/06/11 13:10:47;;;;;;;3.38;1.10;;;30.60;51.70;;;;;;5038794;28;20349;-71
2022/06/11 13:13:21;;;;;;;4.55;1.10;;;30.50;51.00;;;;;;5050414;28;20028;-70
2022/06/11 13:15:50;;;;;;;5.43;1.38;;;29.70;52.20;;;;;;5057547;28;20128;-78
2022/06/11 13:18:41;;;;;;;5.35;1.30;;;29.30;54.60;;;;;;5056575;28;20123;-79
2022/06/11 13:21:12;;;;;;;3.55;1.30;;;30.10;53.10;;;;;;4968927;28;20341;-80
2022/06/11 13:24:11;;;;;;;4.50;1.38;;;29.80;53.90;;;;;;5057437;28;20025;-84
2022/06/11 13:27:13;;;;;;;5.55;1.52;;;28.80;54.90;;;;;;5056852;28;20024;-71